Main page
METAR-TAF:

METAR-TAF

Airports :

Stornoway Airport

Stornoway, Scotland

latitude: 58-13N, longitude: 006-19W, elevation: 9 m

Current weather observation

The report was made 31 minutes ago, at 22:20 UTC
Wind 11 kt from the East
Temperature 7°C
Humidity 76%
Pressure 1023 hPa
Visibility 10 km or more

METAR: EGPO 202220Z AUTO 09011KT 9999 SCT028/// BKN035/// 07/03 Q1023

Time: 22:51 (22:51 UTC)

Forecast

The report was made 2 hours and 53 minutes ago, at 19:58 UTC
Forecast valid from 20 at 21 UTC to 21 at 06 UTC
Wind 12 kt from the East
Visibility 10 km or more
Scattered clouds at a height of 3500 ft
Probability 40% :
Temporary
from 20 at 21 UTC to 21 at 06 UTC
Wind 17 kt from the East with gusts up to 27 kt

TAF: EGPO 201958Z 2021/2106 09012KT 9999 SCT035 PROB40 TEMPO 2021/2106 08017G27KT

Weather observations and forecasts of more than 4000 airports (METAR and TAF reports).

The available stations are represented by yellow and red dots on the map.

Hover mouse over dot to see the name of the station.

Then click to see weather observations and forecasts.

To change the map : click on the green buttons with a black cross to zoom in, on the green button with a dash to zoom out, or on the green arrows for adjacent maps.


METAR-TAF: